Josephine, WV (25857)

5:15 PM EST on February 14, 2016 (GMT -0500)
Flat Top Lake | | Change Station
CLOSE
Current Station
Personal Weather Station
Location: Ghent, WV
Elevation: 2969 ft
Nearby Weather Stations
Active Advisory: Winter Storm Warning Active Notice: Record Report

Elev 2969 ft 37.62 °N, 81.09 °W | Updated 8 minutes ago

Overcast
Overcast
17.2 °F
Feels Like 17 °F
N
2.7
Wind Variable Wind from NE

Today
High -- | Low -- °F
--% Chance of Precip.
Yesterday
High -- | Low -- °F
Precip. -- in
Pressure 30.18 in
Visibility 2.0 miles
Clouds Mostly Cloudy 2800 ft
Overcast 6000 ft
Windchill 17 °F
Dew Point 8 °F
Humidity 66%
Rainfall 0.00 in
Snow Depth Not available.
7:16 AM 6:02 PM
Waxing Crescent, 46% visible
SPECI KBKW 142207Z AUTO 13007KT 2SM -SN BKN028 OVC060 M08/M13 A3018 RMK AO2 SNB2159 P0000 T10781133
Pressure 30.18 in
Visibility 2.0 miles
Clouds Mostly Cloudy 2800 ft
Overcast 6000 ft
Windchill 17 °F
Dew Point 8 °F
Humidity 66%
Rainfall 0.00 in
Snow Depth Not available.
7:16 AM 6:02 PM
Waxing Crescent, 46% visible
SPECI KBKW 142207Z AUTO 13007KT 2SM -SN BKN028 OVC060 M08/M13 A3018 RMK AO2 SNB2159 P0000 T10781133

10-Day Weather Forecast

Almanac

Astronomy

Feb. 14, 2016 Rise Set
Actual Time
Civil Twilight
Nautical Twilight
Astronomical Twilight
Moon
Length of Visible Light
Length of Day
Tomorrow will be .
, % of the Moon is Illuminated

Today's Extremes

State Highs State Lows

Community

WunderPhotos

Upload Photos

1,892,893 photos uploaded!

WunderBlog® & News

Nearby

Air Quality

  Air Quality AQ Index Pollutant
Not available.

Snow Depth

Station Depth Elevation

Earthquake Activity

City Distance Mag. Time & Date
Minimum magnitude displayed is 2.5.

Coastal Water Temperatures

Place Temperature

Stations

Nearby Weather Stations

Station Location Temp. Windchill Dew Point Humidity Wind Precip. Elev Updated Type
                   

Watches & Warnings

Winter Storm Warning
Issued: 3:37 PM EST Feb. 14, 2016 – National Weather Service

... Winter Storm Warning now in effect until 7 PM EST Monday...

* hazard... heavy snow.

* Accumulations... snow accumulation of 3 to 6 inches.

* Ice accumulations... a tenth of an inch on Monday.

* Temperatures... steady or slowly rising through and Monday.

* Impacts... untreated roads will be come snow covered... creating
hazardous travel conditions.

Precautionary/preparedness actions...

A Winter Storm Warning for snow means severe winter weather
conditions are expected or occurring. Significant amounts of snow
are forecast that will make travel dangerous. Only travel in an
emergency. If you must travel... keep an extra flashlight...
food... and water in your vehicle in case of an emergency.